sensor_id;sensor_type;location;lat;lon;timestamp;pressure;altitude;pressure_sealevel;temperature;humidity
68199;BME280;55021;51.554;17.044;2023-03-03T00:14:17;101181.50;;;0.98;86.03
68199;BME280;55021;51.554;17.044;2023-03-03T00:29:32;101142.81;;;1.25;83.81
68199;BME280;55021;51.554;17.044;2023-03-03T00:44:43;101157.78;;;1.44;82.91
68199;BME280;55021;51.554;17.044;2023-03-03T00:59:46;101129.53;;;1.90;80.68
68199;BME280;55021;51.554;17.044;2023-03-03T01:14:49;101119.78;;;1.74;81.90
68199;BME280;55021;51.554;17.044;2023-03-03T01:29:52;101100.41;;;0.86;84.17
68199;BME280;55021;51.554;17.044;2023-03-03T01:45:16;101081.53;;;0.73;85.65
68199;BME280;55021;51.554;17.044;2023-03-03T02:00:18;101107.78;;;1.15;86.07
68199;BME280;55021;51.554;17.044;2023-03-03T02:15:23;101071.91;;;0.35;86.32
68199;BME280;55021;51.554;17.044;2023-03-03T02:30:26;101124.69;;;0.25;88.16
68199;BME280;55021;51.554;17.044;2023-03-03T02:45:29;101055.97;;;0.52;85.67
68199;BME280;55021;51.554;17.044;2023-03-03T03:00:31;101088.81;;;0.87;84.94
68199;BME280;55021;51.554;17.044;2023-03-03T03:15:37;101094.72;;;0.41;86.26
68199;BME280;55021;51.554;17.044;2023-03-03T03:30:41;101093.75;;;0.95;83.50
68199;BME280;55021;51.554;17.044;2023-03-03T03:45:44;101073.16;;;-0.47;88.19
68199;BME280;55021;51.554;17.044;2023-03-03T04:00:47;101163.03;;;0.40;86.82
68199;BME280;55021;51.554;17.044;2023-03-03T04:15:49;101135.75;;;0.16;87.68
68199;BME280;55021;51.554;17.044;2023-03-03T04:30:52;101125.56;;;0.07;88.01
68199;BME280;55021;51.554;17.044;2023-03-03T04:45:55;101136.13;;;0.09;86.24
68199;BME280;55021;51.554;17.044;2023-03-03T05:00:58;101069.22;;;-0.01;84.17
68199;BME280;55021;51.554;17.044;2023-03-03T05:16:01;101028.16;;;-0.33;85.35
68199;BME280;55021;51.554;17.044;2023-03-03T05:31:03;101118.16;;;0.14;85.74
68199;BME280;55021;51.554;17.044;2023-03-03T05:46:06;101117.94;;;0.37;83.81
68199;BME280;55021;51.554;17.044;2023-03-03T06:01:08;101141.22;;;0.51;82.56
68199;BME280;55021;51.554;17.044;2023-03-03T06:16:10;101134.78;;;0.55;84.25
68199;BME280;55021;51.554;17.044;2023-03-03T06:31:13;101159.09;;;0.84;83.54
68199;BME280;55021;51.554;17.044;2023-03-03T06:46:15;101174.78;;;-0.03;86.06
68199;BME280;55021;51.554;17.044;2023-03-03T07:01:18;101214.97;;;-0.09;86.28
68199;BME280;55021;51.554;17.044;2023-03-03T07:16:24;101162.94;;;0.04;84.67
68199;BME280;55021;51.554;17.044;2023-03-03T07:31:32;101205.34;;;-0.11;86.86
68199;BME280;55021;51.554;17.044;2023-03-03T07:46:40;101185.38;;;-0.01;85.99
68199;BME280;55021;51.554;17.044;2023-03-03T08:01:45;101189.19;;;0.49;84.14
68199;BME280;55021;51.554;17.044;2023-03-03T08:16:48;101181.47;;;-0.13;86.35
68199;BME280;55021;51.554;17.044;2023-03-03T08:31:50;101194.38;;;0.71;83.82
68199;BME280;55021;51.554;17.044;2023-03-03T08:46:53;101167.63;;;0.18;84.18
68199;BME280;55021;51.554;17.044;2023-03-03T09:01:56;101186.47;;;0.32;83.62
68199;BME280;55021;51.554;17.044;2023-03-03T09:16:58;101194.22;;;0.55;83.86
68199;BME280;55021;51.554;17.044;2023-03-03T09:32:16;101240.28;;;0.76;83.35
68199;BME280;55021;51.554;17.044;2023-03-03T09:47:34;101227.91;;;0.75;83.33
68199;BME280;55021;51.554;17.044;2023-03-03T10:02:55;101222.00;;;0.87;83.59
68199;BME280;55021;51.554;17.044;2023-03-03T10:18:11;101220.97;;;0.89;83.05
68199;BME280;55021;51.554;17.044;2023-03-03T10:33:22;101223.75;;;1.05;82.92
68199;BME280;55021;51.554;17.044;2023-03-03T11:04:10;101173.66;;;0.95;82.74
68199;BME280;55021;51.554;17.044;2023-03-03T11:19:48;101206.91;;;1.05;82.99
68199;BME280;55021;51.554;17.044;2023-03-03T11:35:04;101201.31;;;0.92;82.65
68199;BME280;55021;51.554;17.044;2023-03-03T11:50:19;101184.81;;;1.71;79.90
68199;BME280;55021;51.554;17.044;2023-03-03T12:05:37;101176.56;;;1.07;82.34
68199;BME280;55021;51.554;17.044;2023-03-03T12:20:46;101148.66;;;0.80;82.81
68199;BME280;55021;51.554;17.044;2023-03-03T12:36:00;101127.91;;;0.86;82.30
68199;BME280;55021;51.554;17.044;2023-03-03T12:51:14;101122.88;;;1.15;81.20
68199;BME280;55021;51.554;17.044;2023-03-03T13:06:27;101143.13;;;1.19;81.85
68199;BME280;55021;51.554;17.044;2023-03-03T13:21:36;101136.84;;;1.54;80.80
68199;BME280;55021;51.554;17.044;2023-03-03T13:36:47;101119.69;;;1.75;80.22
68199;BME280;55021;51.554;17.044;2023-03-03T13:51:59;101121.94;;;2.16;79.94
68199;BME280;55021;51.554;17.044;2023-03-03T14:07:10;101128.94;;;1.85;80.45
68199;BME280;55021;51.554;17.044;2023-03-03T14:22:20;101083.50;;;1.54;81.27
68199;BME280;55021;51.554;17.044;2023-03-03T14:37:27;101108.38;;;1.55;80.61
68199;BME280;55021;51.554;17.044;2023-03-03T14:52:33;101091.63;;;1.68;80.37
68199;BME280;55021;51.554;17.044;2023-03-03T15:07:37;101057.50;;;1.42;81.10
68199;BME280;55021;51.554;17.044;2023-03-03T15:22:48;101087.34;;;1.48;81.52
68199;BME280;55021;51.554;17.044;2023-03-03T15:37:57;101067.06;;;1.46;82.10
68199;BME280;55021;51.554;17.044;2023-03-03T15:53:14;101036.44;;;1.20;82.79
68199;BME280;55021;51.554;17.044;2023-03-03T16:08:26;101039.81;;;1.24;82.51
68199;BME280;55021;51.554;17.044;2023-03-03T16:23:36;101056.38;;;1.13;83.95
68199;BME280;55021;51.554;17.044;2023-03-03T16:38:44;101017.56;;;1.25;82.75
68199;BME280;55021;51.554;17.044;2023-03-03T16:53:56;101031.38;;;0.99;84.15
68199;BME280;55021;51.554;17.044;2023-03-03T17:09:16;100957.69;;;0.30;85.15
68199;BME280;55021;51.554;17.044;2023-03-03T17:24:34;101030.59;;;0.97;84.49
68199;BME280;55021;51.554;17.044;2023-03-03T17:39:51;101064.22;;;1.16;84.41
68199;BME280;55021;51.554;17.044;2023-03-03T17:55:18;100958.50;;;0.50;84.42
68199;BME280;55021;51.554;17.044;2023-03-03T18:26:39;101042.69;;;1.04;84.53
68199;BME280;55021;51.554;17.044;2023-03-03T18:42:09;101071.47;;;1.47;83.34
68199;BME280;55021;51.554;17.044;2023-03-03T19:13:48;101050.69;;;1.04;84.69
68199;BME280;55021;51.554;17.044;2023-03-03T19:29:17;101054.13;;;1.06;85.20
68199;BME280;55021;51.554;17.044;2023-03-03T19:44:42;101054.56;;;1.31;84.33
68199;BME280;55021;51.554;17.044;2023-03-03T21:02:45;100920.84;;;0.23;86.31
68199;BME280;55021;51.554;17.044;2023-03-03T21:34:25;100863.75;;;0.30;85.30
68199;BME280;55021;51.554;17.044;2023-03-03T21:49:57;100850.81;;;0.22;85.75
68199;BME280;55021;51.554;17.044;2023-03-03T22:05:12;100842.53;;;0.61;84.55
68199;BME280;55021;51.554;17.044;2023-03-03T22:20:33;100859.53;;;0.59;85.68
68199;BME280;55021;51.554;17.044;2023-03-03T22:35:40;100852.59;;;0.72;85.41
68199;BME280;55021;51.554;17.044;2023-03-03T22:50:45;100891.75;;;1.03;85.48
68199;BME280;55021;51.554;17.044;2023-03-03T23:05:47;100818.59;;;0.77;84.68
68199;BME280;55021;51.554;17.044;2023-03-03T23:20:50;100830.59;;;1.32;83.07
68199;BME280;55021;51.554;17.044;2023-03-03T23:35:52;100744.81;;;1.10;83.43
68199;BME280;55021;51.554;17.044;2023-03-03T23:50:55;100778.94;;;1.65;82.55
